Time;durP1;ratioP1;P1;durP2;ratioP2;P2;SDS_P1;SDS_P2;PMS_P1;PMS_P2;Temp;Humidity;BMP_temperature;BMP_pressure;BME280_temperature;BME280_humidity;BME280_pressure;Samples;Min_cycle;Max_cycle;Signal;HPM_P1;HPM_P2
2023/10/18 00:00:58;;;;;;;;;;;10.40;56.90;;;;;;4952578;28;87101;-43
2023/10/18 00:03:25;;;;;;;;;;;10.40;56.80;;;;;;4954638;28;87126;-43
2023/10/18 00:05:50;;;;;;;;;;;10.40;57.00;;;;;;4952194;28;88856;-43
2023/10/18 00:08:17;;;;;;;;;;;10.40;56.90;;;;;;4954219;28;87138;-42
2023/10/18 00:10:42;;;;;;;;;;;10.40;57.00;;;;;;4955411;28;88949;-44
2023/10/18 00:13:08;;;;;;;;;;;10.40;56.90;;;;;;4952833;28;88078;-42
2023/10/18 00:15:34;;;;;;;;;;;10.40;57.00;;;;;;4954140;28;88153;-42
2023/10/18 00:17:59;;;;;;;;;;;10.40;56.90;;;;;;4951994;28;88022;-43
2023/10/18 00:20:25;;;;;;;;;;;10.40;56.90;;;;;;4955178;28;87220;-42
2023/10/18 00:22:51;;;;;;;;;;;10.40;57.00;;;;;;4951328;28;87209;-45
2023/10/18 00:25:17;;;;;;;;;;;10.40;57.40;;;;;;4953888;28;87972;-42
2023/10/18 00:27:45;;;;;;;;;;;10.40;56.90;;;;;;4952714;28;87133;-44
2023/10/18 00:30:11;;;;;;;;;;;10.40;57.00;;;;;;4953097;28;89011;-42
2023/10/18 00:32:41;;;;;;;;;;;10.40;57.00;;;;;;4956369;28;89502;-42
2023/10/18 00:35:18;;;;;;;;;;;10.40;57.10;;;;;;4951258;28;88822;-43
2023/10/18 00:37:44;;;;;;;;;;;10.40;57.10;;;;;;4951668;28;90311;-44
2023/10/18 00:40:21;;;;;;;;;;;10.40;57.10;;;;;;4953849;28;87233;-43
2023/10/18 00:42:47;;;;;;;;;;;10.40;57.10;;;;;;4952316;28;87250;-43
2023/10/18 00:45:12;;;;;;;;;;;10.40;57.10;;;;;;4953030;28;87622;-43
2023/10/18 00:47:38;;;;;;;;;;;10.30;57.20;;;;;;4954117;28;87194;-44
2023/10/18 00:52:41;;;;;;;;;;;10.30;57.60;;;;;;5057211;27;80210;-42
2023/10/18 00:55:09;;;;;;;;;;;10.40;57.10;;;;;;5054418;27;80368;-42
2023/10/18 00:57:36;;;;;;;;;;;10.30;57.10;;;;;;5053914;27;81337;-43
2023/10/18 01:00:07;;;;;;;;;;;10.30;57.20;;;;;;5052702;27;81098;-42
2023/10/18 01:02:36;;;;;;;;;;;10.30;57.30;;;;;;5048234;27;80208;-43
2023/10/18 01:05:03;;;;;;;;;;;10.30;57.30;;;;;;5054209;27;80882;-42
2023/10/18 01:07:29;;;;;;;;;;;10.30;57.30;;;;;;5053431;27;82637;-43
2023/10/18 01:09:54;;;;;;;;;;;10.30;57.30;;;;;;5052964;27;80509;-42
2023/10/18 01:12:20;;;;;;;;;;;10.30;57.20;;;;;;5057325;27;80749;-42
2023/10/18 01:14:48;;;;;;;;;;;10.30;57.20;;;;;;5051632;27;80780;-42
2023/10/18 01:17:15;;;;;;;;;;;10.30;57.20;;;;;;5054447;27;81153;-43
2023/10/18 01:19:41;;;;;;;;;;;10.30;57.20;;;;;;5053049;27;81009;-44
2023/10/18 01:22:07;;;;;;;;;;;10.30;57.10;;;;;;5053349;27;80558;-43
2023/10/18 01:24:36;;;;;;;;;;;10.30;57.20;;;;;;5054192;27;80724;-42
2023/10/18 01:27:02;;;;;;;;;;;10.30;57.20;;;;;;5051324;27;82830;-42
2023/10/18 01:29:29;;;;;;;;;;;10.40;57.10;;;;;;5048073;27;80365;-42
2023/10/18 01:31:54;;;;;;;;;;;10.30;57.10;;;;;;5053799;27;81259;-42
2023/10/18 01:34:20;;;;;;;;;;;10.30;57.10;;;;;;5055647;27;81226;-43
2023/10/18 01:36:46;;;;;;;;;;;10.30;57.30;;;;;;5053327;27;80738;-42
2023/10/18 01:39:21;;;;;;;;;;;10.30;57.30;;;;;;5053814;27;81229;-43
2023/10/18 01:41:47;;;;;;;;;;;10.30;57.30;;;;;;5048459;27;80103;-42
2023/10/18 01:44:18;;;;;;;;;;;10.30;57.20;;;;;;5053962;27;80721;-43
2023/10/18 01:46:48;;;;;;;;;;;10.30;57.40;;;;;;5053351;27;82737;-43
2023/10/18 01:49:18;;;;;;;;;;;10.30;57.30;;;;;;5051288;27;80305;-42
2023/10/18 01:51:46;;;;;;;;;;;10.30;57.30;;;;;;5047879;27;81756;-42
2023/10/18 01:54:18;;;;;;;;;;;10.30;57.30;;;;;;5052948;27;81413;-42
2023/10/18 01:56:46;;;;;;;;;;;10.30;57.40;;;;;;5056923;27;80150;-42
2023/10/18 01:59:17;;;;;;;;;;;10.30;57.40;;;;;;5050880;27;81359;-42
2023/10/18 02:01:57;;;;;;;;;;;10.30;57.40;;;;;;5053719;27;80372;-42
2023/10/18 02:04:25;;;;;;;;;;;10.30;57.50;;;;;;5040448;28;82227;-43
2023/10/18 02:07:00;;;;;;;;;;;10.30;57.30;;;;;;5036462;28;81045;-42
2023/10/18 02:09:32;;;;;;;;;;;10.30;57.40;;;;;;5035722;28;80347;-42
2023/10/18 02:12:01;;;;;;;;;;;10.30;57.30;;;;;;5033851;28;80844;-43
2023/10/18 02:14:27;;;;;;;;;;;10.30;57.50;;;;;;5039910;28;81260;-43
2023/10/18 02:16:53;;;;;;;;;;;10.30;57.50;;;;;;5038795;28;80378;-43
2023/10/18 02:19:21;;;;;;;;;;;10.30;57.40;;;;;;5041508;28;80776;-42
2023/10/18 02:21:47;;;;;;;;;;;10.20;57.50;;;;;;5040071;28;80368;-42
2023/10/18 02:24:13;;;;;;;;;;;10.30;57.60;;;;;;5037272;27;80239;-42
2023/10/18 02:26:48;;;;;;;;;;;10.30;57.30;;;;;;5040615;28;81132;-43
2023/10/18 02:29:13;;;;;;;;;;;10.20;57.50;;;;;;5039053;28;80249;-44
2023/10/18 02:31:42;;;;;;;;;;;10.30;57.40;;;;;;5038227;28;80787;-42
2023/10/18 02:34:09;;;;;;;;;;;10.20;57.90;;;;;;5040373;28;81735;-43
2023/10/18 02:36:40;;;;;;;;;;;10.20;57.50;;;;;;5033597;28;80890;-42
2023/10/18 02:39:07;;;;;;;;;;;10.20;57.50;;;;;;5037965;28;84080;-42
2023/10/18 02:41:34;;;;;;;;;;;10.20;57.50;;;;;;5040941;28;81202;-45
2023/10/18 02:44:00;;;;;;;;;;;10.20;57.40;;;;;;5039973;28;82373;-42
2023/10/18 02:46:26;;;;;;;;;;;10.30;57.50;;;;;;5036717;28;81216;-44
2023/10/18 02:48:55;;;;;;;;;;;10.30;57.70;;;;;;5039895;28;80341;-42
2023/10/18 02:51:24;;;;;;;;;;;10.30;57.50;;;;;;5037555;28;80968;-42
2023/10/18 02:53:51;;;;;;;;;;;10.30;57.50;;;;;;5037838;28;81233;-43
2023/10/18 02:56:20;;;;;;;;;;;10.20;57.40;;;;;;5039451;28;80470;-42
2023/10/18 02:58:49;;;;;;;;;;;10.20;57.50;;;;;;5033006;28;82351;-43
2023/10/18 03:01:18;;;;;;;;;;;10.20;57.50;;;;;;5038856;28;80305;-43
2023/10/18 03:03:46;;;;;;;;;;;10.20;57.40;;;;;;5041357;28;80356;-43
2023/10/18 03:06:16;;;;;;;;;;;10.20;57.70;;;;;;5036735;28;82733;-44
2023/10/18 03:08:42;;;;;;;;;;;10.20;57.70;;;;;;5032746;28;80249;-43
2023/10/18 03:11:11;;;;;;;;;;;10.20;57.60;;;;;;5038969;28;82236;-43
2023/10/18 03:13:37;;;;;;;;;;;10.20;57.80;;;;;;5037639;27;82838;-43
2023/10/18 03:16:06;;;;;;;;;;;10.20;57.80;;;;;;5036807;28;80326;-43
2023/10/18 03:18:34;;;;;;;;;;;10.20;57.70;;;;;;5039916;28;80766;-42
2023/10/18 03:21:08;;;;;;;;;;;10.20;57.70;;;;;;5032640;28;82958;-43
2023/10/18 03:23:44;;;;;;;;;;;10.20;57.70;;;;;;5040329;28;80177;-43
2023/10/18 03:26:11;;;;;;;;;;;10.20;57.70;;;;;;5032298;28;80264;-42
2023/10/18 03:28:40;;;;;;;;;;;10.20;57.70;;;;;;5039089;28;80268;-43
2023/10/18 03:31:22;;;;;;;;;;;10.20;58.00;;;;;;5037585;28;80695;-43
2023/10/18 03:33:55;;;;;;;;;;;10.20;57.80;;;;;;5032180;28;84289;-42
2023/10/18 03:36:21;;;;;;;;;;;10.20;57.60;;;;;;5037116;28;80870;-43
2023/10/18 03:38:53;;;;;;;;;;;10.20;57.70;;;;;;5038770;28;82431;-43
2023/10/18 03:41:25;;;;;;;;;;;10.20;57.90;;;;;;5032629;28;82983;-42
2023/10/18 03:43:58;;;;;;;;;;;10.20;57.70;;;;;;5037831;28;80340;-42
2023/10/18 03:46:38;;;;;;;;;;;10.10;57.80;;;;;;5041774;28;81168;-43
2023/10/18 03:49:08;;;;;;;;;;;10.20;58.00;;;;;;5035812;28;80221;-42
2023/10/18 03:51:33;;;;;;;;;;;10.20;58.00;;;;;;5035385;28;80761;-43
2023/10/18 03:54:00;;;;;;;;;;;10.20;58.00;;;;;;5039086;28;81138;-42
2023/10/18 03:56:26;;;;;;;;;;;10.20;57.90;;;;;;5036121;28;80271;-42
2023/10/18 03:59:00;;;;;;;;;;;10.20;58.00;;;;;;5038540;27;80683;-43
2023/10/18 04:01:39;;;;;;;;;;;10.20;57.70;;;;;;5038399;28;81248;-45
2023/10/18 04:04:05;;;;;;;;;;;10.10;57.70;;;;;;5033850;28;80315;-44
2023/10/18 04:06:35;;;;;;;;;;;10.20;57.70;;;;;;5037257;27;82181;-43
2023/10/18 04:09:13;;;;;;;;;;;10.20;57.80;;;;;;5040745;28;81250;-42
2023/10/18 04:11:39;;;;;;;;;;;10.10;57.80;;;;;;5034156;28;80766;-42
2023/10/18 04:14:04;;;;;;;;;;;10.10;57.90;;;;;;5037287;28;81657;-42
2023/10/18 04:16:30;;;;;;;;;;;10.10;58.00;;;;;;5037898;28;80344;-43
2023/10/18 04:18:56;;;;;;;;;;;10.10;58.00;;;;;;5036374;28;80679;-43
2023/10/18 04:21:25;;;;;;;;;;;10.20;58.10;;;;;;5038503;28;81451;-42
2023/10/18 04:23:56;;;;;;;;;;;10.10;58.00;;;;;;5032194;28;80806;-42
2023/10/18 04:26:25;;;;;;;;;;;10.10;57.80;;;;;;5036739;27;82411;-43
2023/10/18 04:28:57;;;;;;;;;;;10.10;58.10;;;;;;5037879;28;81296;-42
2023/10/18 04:31:23;;;;;;;;;;;10.10;58.00;;;;;;5034215;28;80293;-43
2023/10/18 04:33:50;;;;;;;;;;;10.20;58.00;;;;;;5037907;28;81305;-42
2023/10/18 04:36:16;;;;;;;;;;;10.10;58.20;;;;;;5036368;28;80302;-42
2023/10/18 04:38:44;;;;;;;;;;;10.10;58.20;;;;;;5036584;27;83004;-42
2023/10/18 04:41:11;;;;;;;;;;;10.10;58.20;;;;;;5038024;28;82718;-43
2023/10/18 04:43:37;;;;;;;;;;;10.10;58.10;;;;;;5034331;28;80467;-42
2023/10/18 04:54:00;;;;;;;;;;;10.10;58.10;;;;;;5037672;28;80753;-42
2023/10/18 04:56:34;;;;;;;;;;;10.20;58.40;;;;;;5030981;28;80300;-43
2023/10/18 04:59:00;;;;;;;;;;;10.10;58.20;;;;;;5036312;28;81433;-42
2023/10/18 05:01:34;;;;;;;;;;;10.10;58.20;;;;;;5036078;28;83663;-42
2023/10/18 05:04:18;;;;;;;;;;;10.10;58.00;;;;;;5031195;28;81210;-43
2023/10/18 05:06:44;;;;;;;;;;;10.10;58.40;;;;;;5033657;28;83271;-42
2023/10/18 05:09:12;;;;;;;;;;;10.10;58.20;;;;;;5029756;28;83061;-43
2023/10/18 05:11:47;;;;;;;;;;;10.10;58.00;;;;;;5035042;28;83562;-42
2023/10/18 05:14:19;;;;;;;;;;;10.10;58.30;;;;;;5039142;28;83335;-42
2023/10/18 05:16:46;;;;;;;;;;;10.10;58.20;;;;;;5030013;28;82214;-42
2023/10/18 05:19:13;;;;;;;;;;;10.10;58.20;;;;;;5035780;28;81923;-42
2023/10/18 05:21:39;;;;;;;;;;;10.10;58.10;;;;;;5034997;28;83030;-43
2023/10/18 05:24:05;;;;;;;;;;;10.10;58.30;;;;;;5035426;28;82962;-42
2023/10/18 05:26:33;;;;;;;;;;;10.10;58.20;;;;;;5033011;28;82471;-42
2023/10/18 05:29:02;;;;;;;;;;;10.10;58.40;;;;;;5037237;28;82038;-42
2023/10/18 05:34:48;;;;;;;;;;;10.10;58.20;;;;;;5030167;28;82365;-42
2023/10/18 05:37:14;;;;;;;;;;;10.10;58.50;;;;;;5033826;28;85309;-42
2023/10/18 05:42:28;;;;;;;;;;;10.00;58.50;;;;;;5017972;28;82366;-44
2023/10/18 05:44:54;;;;;;;;;;;10.10;58.70;;;;;;5037554;28;81948;-43
2023/10/18 05:47:19;;;;;;;;;;;10.10;58.60;;;;;;5039696;28;82004;-43
2023/10/18 05:49:45;;;;;;;;;;;10.10;58.80;;;;;;5036263;28;83565;-42
2023/10/18 05:54:36;;;;;;;;;;;10.10;58.90;;;;;;5037775;28;82236;-43
2023/10/18 05:57:02;;;;;;;;;;;10.10;58.50;;;;;;5038757;28;83100;-42
2023/10/18 05:59:31;;;;;;;;;;;10.10;58.40;;;;;;5040831;28;82053;-43
2023/10/18 06:02:01;;;;;;;;;;;10.20;58.70;;;;;;5036132;28;83856;-43
2023/10/18 06:04:27;;;;;;;;;;;10.10;58.40;;;;;;5032401;28;82100;-42
2023/10/18 06:06:57;;;;;;;;;;;10.10;58.50;;;;;;5039341;28;82574;-43
2023/10/18 06:09:26;;;;;;;;;;;10.10;58.40;;;;;;5037998;28;84298;-42
2023/10/18 06:11:55;;;;;;;;;;;10.10;58.60;;;;;;5036490;28;82109;-42
2023/10/18 06:14:33;;;;;;;;;;;10.00;58.40;;;;;;5039638;28;82483;-42
2023/10/18 06:17:19;;;;;;;;;;;10.10;58.80;;;;;;5030548;28;84280;-42
2023/10/18 06:19:45;;;;;;;;;;;10.00;58.30;;;;;;5036216;28;81440;-42
2023/10/18 06:22:29;;;;;;;;;;;10.00;58.50;;;;;;5036669;27;83512;-42
2023/10/18 06:24:57;;;;;;;;;;;10.10;58.50;;;;;;5032614;28;83257;-43
2023/10/18 06:27:23;;;;;;;;;;;10.10;58.40;;;;;;5034999;27;83801;-42
2023/10/18 06:29:53;;;;;;;;;;;10.10;58.40;;;;;;5038765;28;83583;-43
2023/10/18 06:32:22;;;;;;;;;;;10.10;58.60;;;;;;5032014;28;82011;-42
2023/10/18 06:34:56;;;;;;;;;;;10.10;58.30;;;;;;5032928;28;83746;-42
2023/10/18 06:37:31;;;;;;;;;;;10.00;58.40;;;;;;5032831;28;83057;-42
2023/10/18 06:39:58;;;;;;;;;;;10.00;58.50;;;;;;5033108;28;82087;-42
2023/10/18 06:42:26;;;;;;;;;;;10.00;58.60;;;;;;5033800;28;82841;-43
2023/10/18 06:44:54;;;;;;;;;;;10.10;58.60;;;;;;5032970;28;83591;-42
2023/10/18 06:47:23;;;;;;;;;;;10.00;58.30;;;;;;5036696;27;83269;-42
2023/10/18 06:49:48;;;;;;;;;;;10.00;58.50;;;;;;5031299;28;83699;-42
2023/10/18 06:52:17;;;;;;;;;;;10.00;58.50;;;;;;5029651;28;83419;-42
2023/10/18 06:54:45;;;;;;;;;;;10.00;58.40;;;;;;5024892;27;84855;-42
2023/10/18 06:57:27;;;;;;;;;;;10.00;58.30;;;;;;5037932;28;83053;-42
2023/10/18 06:59:55;;;;;;;;;;;10.00;58.40;;;;;;5032816;28;82396;-42
2023/10/18 07:02:27;;;;;;;;;;;10.00;58.40;;;;;;5028989;28;83805;-42
2023/10/18 07:04:56;;;;;;;;;;;10.00;58.60;;;;;;5025738;28;84713;-42
2023/10/18 07:07:23;;;;;;;;;;;10.10;58.40;;;;;;5038756;28;82030;-42
2023/10/18 07:09:56;;;;;;;;;;;10.10;58.50;;;;;;5034193;28;81421;-42
2023/10/18 07:12:29;;;;;;;;;;;10.00;58.50;;;;;;5027631;28;83675;-42
2023/10/18 07:14:56;;;;;;;;;;;10.00;58.50;;;;;;5034242;28;82451;-42
2023/10/18 07:17:24;;;;;;;;;;;10.00;58.50;;;;;;5035587;28;85326;-42
2023/10/18 07:19:55;;;;;;;;;;;10.00;58.40;;;;;;5028858;28;82155;-42
2023/10/18 07:22:27;;;;;;;;;;;10.00;58.50;;;;;;5028406;28;82605;-42
2023/10/18 07:24:59;;;;;;;;;;;10.00;58.80;;;;;;5035777;28;84333;-42
2023/10/18 07:27:29;;;;;;;;;;;10.00;58.90;;;;;;5037018;28;82020;-42
2023/10/18 07:29:58;;;;;;;;;;;10.10;58.60;;;;;;5033327;28;82286;-42
2023/10/18 07:32:24;;;;;;;;;;;10.10;58.60;;;;;;5022254;28;82153;-43
2023/10/18 07:34:49;;;;;;;;;;;10.00;58.60;;;;;;5037738;27;82143;-42
2023/10/18 07:37:19;;;;;;;;;;;10.00;58.70;;;;;;5026239;28;82981;-42
2023/10/18 07:39:56;;;;;;;;;;;10.00;58.70;;;;;;5027339;28;82129;-42
2023/10/18 07:42:26;;;;;;;;;;;10.00;58.70;;;;;;5032431;28;82961;-42
2023/10/18 07:44:55;;;;;;;;;;;10.10;58.80;;;;;;5031257;28;83245;-42
2023/10/18 07:47:25;;;;;;;;;;;10.00;58.60;;;;;;5031759;28;82109;-42
2023/10/18 07:49:51;;;;;;;;;;;10.10;58.60;;;;;;5029761;28;83624;-42
2023/10/18 07:52:16;;;;;;;;;;;10.00;59.30;;;;;;5036568;28;82059;-42
2023/10/18 07:54:42;;;;;;;;;;;10.00;58.90;;;;;;5027998;28;82466;-42
2023/10/18 07:57:33;;;;;;;;;;;10.00;58.70;;;;;;5022533;28;82895;-42
2023/10/18 08:00:21;;;;;;;;;;;10.00;59.30;;;;;;5034131;27;81215;-42
2023/10/18 08:02:43;;;;;;;;;;;10.00;59.00;;;;;;5030201;28;82086;-42
2023/10/18 08:05:08;;;;;;;;;;;10.00;59.10;;;;;;5028423;28;84397;-42
2023/10/18 08:07:36;;;;;;;;;;;10.00;58.70;;;;;;5029958;28;83906;-42
2023/10/18 08:10:07;;;;;;;;;;;10.10;58.90;;;;;;5037732;28;83287;-43
2023/10/18 08:12:33;;;;;;;;;;;10.00;58.90;;;;;;5030686;28;84503;-42
2023/10/18 08:14:59;;;;;;;;;;;10.00;58.90;;;;;;5020263;28;82109;-42
2023/10/18 08:17:43;;;;;;;;;;;10.00;58.80;;;;;;5029384;28;82926;-42
2023/10/18 08:22:47;;;;;;;;;;;10.10;58.80;;;;;;5020958;28;82202;-42
2023/10/18 08:25:23;;;;;;;;;;;10.10;58.90;;;;;;5022290;28;82216;-42
2023/10/18 08:27:48;;;;;;;;;;;10.10;58.60;;;;;;5032376;28;82069;-42
2023/10/18 08:30:23;;;;;;;;;;;10.10;58.60;;;;;;5032471;28;81893;-42
2023/10/18 08:32:51;;;;;;;;;;;10.10;58.70;;;;;;5024587;28;85330;-42
2023/10/18 08:35:19;;;;;;;;;;;10.10;58.60;;;;;;5023008;28;81994;-43
2023/10/18 08:37:45;;;;;;;;;;;10.10;58.80;;;;;;5035179;28;84330;-42
2023/10/18 08:40:37;;;;;;;;;;;10.10;58.50;;;;;;5032877;28;82032;-42
2023/10/18 08:43:15;;;;;;;;;;;10.10;58.80;;;;;;5022908;28;82871;-42
2023/10/18 08:45:47;;;;;;;;;;;10.10;58.70;;;;;;5032923;28;82985;-42
2023/10/18 08:48:17;;;;;;;;;;;10.10;58.90;;;;;;5035324;28;82393;-42
2023/10/18 08:50:42;;;;;;;;;;;10.10;58.50;;;;;;5021382;28;82383;-43
2023/10/18 08:53:11;;;;;;;;;;;10.10;58.70;;;;;;5025816;28;84173;-43
2023/10/18 08:55:43;;;;;;;;;;;10.10;58.70;;;;;;5035676;28;82060;-42
2023/10/18 08:58:17;;;;;;;;;;;10.10;58.70;;;;;;5035782;28;82954;-42
2023/10/18 09:03:14;;;;;;;;;;;10.10;58.70;;;;;;5027834;28;82489;-42
2023/10/18 09:05:40;;;;;;;;;;;10.10;58.40;;;;;;5034426;28;82636;-42
2023/10/18 09:08:07;;;;;;;;;;;10.10;58.50;;;;;;5031325;28;82555;-42
2023/10/18 09:15:54;;;;;;;;;;;10.20;58.70;;;;;;5037192;28;81324;-42
2023/10/18 09:18:24;;;;;;;;;;;10.10;58.50;;;;;;5027734;27;82015;-42
2023/10/18 09:20:50;;;;;;;;;;;10.10;58.80;;;;;;5032187;28;84516;-42
2023/10/18 09:23:24;;;;;;;;;;;10.10;58.50;;;;;;5036025;28;82905;-42
2023/10/18 09:26:05;;;;;;;;;;;10.10;58.80;;;;;;5033979;28;84278;-42
2023/10/18 09:28:35;;;;;;;;;;;10.20;58.70;;;;;;5034254;28;83588;-42
2023/10/18 09:31:11;;;;;;;;;;;10.20;58.60;;;;;;5028196;28;82362;-42
2023/10/18 09:33:51;;;;;;;;;;;10.20;58.70;;;;;;5039395;28;83250;-42
2023/10/18 09:36:20;;;;;;;;;;;10.10;59.00;;;;;;5027363;28;82043;-42
2023/10/18 09:38:47;;;;;;;;;;;10.10;58.60;;;;;;5032417;28;82840;-43
2023/10/18 09:41:12;;;;;;;;;;;10.10;58.70;;;;;;5039263;28;82515;-42
2023/10/18 09:43:38;;;;;;;;;;;10.10;59.00;;;;;;5040011;28;81995;-42
2023/10/18 09:46:16;;;;;;;;;;;10.20;58.80;;;;;;5025506;28;83663;-42
2023/10/18 09:48:46;;;;;;;;;;;10.10;58.80;;;;;;5032385;28;82961;-42
2023/10/18 09:51:15;;;;;;;;;;;10.20;59.50;;;;;;5036105;28;83658;-42
2023/10/18 09:53:44;;;;;;;;;;;10.20;58.80;;;;;;5037817;28;82439;-43
2023/10/18 09:56:13;;;;;;;;;;;10.20;58.90;;;;;;5029519;28;83164;-42
2023/10/18 09:58:43;;;;;;;;;;;10.20;58.70;;;;;;5032385;28;83713;-42
2023/10/18 10:01:17;;;;;;;;;;;10.20;59.20;;;;;;5039502;28;83374;-41
2023/10/18 10:03:51;;;;;;;;;;;10.20;58.70;;;;;;5036451;28;82955;-42
2023/10/18 10:06:19;;;;;;;;;;;10.20;59.40;;;;;;5022415;28;82947;-42
2023/10/18 10:08:47;;;;;;;;;;;10.20;58.80;;;;;;5034786;28;82080;-42
2023/10/18 10:11:15;;;;;;;;;;;10.20;58.70;;;;;;5037034;28;83839;-42
2023/10/18 10:13:42;;;;;;;;;;;10.20;59.00;;;;;;5034546;28;83015;-42
2023/10/18 10:16:09;;;;;;;;;;;10.20;59.00;;;;;;5025296;28;82123;-42
2023/10/18 10:18:37;;;;;;;;;;;10.20;59.00;;;;;;5039432;28;82953;-42
2023/10/18 10:21:05;;;;;;;;;;;10.20;59.10;;;;;;5035846;28;83091;-42
2023/10/18 10:23:32;;;;;;;;;;;10.20;59.30;;;;;;5030920;28;82347;-42
2023/10/18 10:26:00;;;;;;;;;;;10.20;58.90;;;;;;5026428;28;83924;-42
2023/10/18 10:31:45;;;;;;;;;;;10.20;58.90;;;;;;5028062;28;82129;-42
2023/10/18 10:34:15;;;;;;;;;;;10.20;59.10;;;;;;5032864;28;83058;-42
2023/10/18 10:36:44;;;;;;;;;;;10.20;59.40;;;;;;5033332;28;82021;-42
2023/10/18 10:39:21;;;;;;;;;;;10.20;59.00;;;;;;5036554;28;82912;-42
2023/10/18 10:41:48;;;;;;;;;;;10.20;58.90;;;;;;5017402;28;84214;-42
2023/10/18 10:44:23;;;;;;;;;;;10.20;59.20;;;;;;5031717;28;82110;-42
2023/10/18 10:46:50;;;;;;;;;;;10.20;59.20;;;;;;5036764;27;82372;-44
2023/10/18 10:49:41;;;;;;;;;;;10.20;59.40;;;;;;5030588;28;83810;-43
2023/10/18 10:52:08;;;;;;;;;;;10.20;59.40;;;;;;5030604;28;83808;-42
2023/10/18 10:54:37;;;;;;;;;;;10.20;59.40;;;;;;5029796;28;83086;-42
2023/10/18 10:57:08;;;;;;;;;;;10.20;59.30;;;;;;5038005;28;81366;-42
2023/10/18 10:59:41;;;;;;;;;;;10.20;59.70;;;;;;5029514;28;83261;-43
2023/10/18 11:02:07;;;;;;;;;;;10.20;59.50;;;;;;5029140;28;84795;-42
2023/10/18 11:04:57;;;;;;;;;;;10.20;59.50;;;;;;5033556;28;83099;-42
2023/10/18 11:07:24;;;;;;;;;;;10.20;59.80;;;;;;5030799;28;83185;-42
2023/10/18 11:09:51;;;;;;;;;;;10.20;59.50;;;;;;5025965;28;84325;-42
2023/10/18 11:12:17;;;;;;;;;;;10.20;59.50;;;;;;5031510;28;82280;-42
2023/10/18 11:14:43;;;;;;;;;;;10.20;59.60;;;;;;5035431;28;84338;-42
2023/10/18 11:19:51;;;;;;;;;;;10.20;59.70;;;;;;5022120;28;82481;-42
2023/10/18 11:22:20;;;;;;;;;;;10.30;60.00;;;;;;5033169;28;82042;-42
2023/10/18 11:24:49;;;;;;;;;;;10.30;59.70;;;;;;5034933;28;82312;-42
2023/10/18 11:27:17;;;;;;;;;;;10.20;59.70;;;;;;5031772;28;82605;-43
2023/10/18 11:29:42;;;;;;;;;;;10.20;59.60;;;;;;5025882;28;85360;-42
2023/10/18 11:32:15;;;;;;;;;;;10.20;59.80;;;;;;5032586;28;82129;-42
2023/10/18 11:34:43;;;;;;;;;;;10.20;59.80;;;;;;5037974;28;84536;-42
2023/10/18 11:37:09;;;;;;;;;;;10.20;59.80;;;;;;5028316;28;82791;-42
2023/10/18 11:39:40;;;;;;;;;;;10.20;59.90;;;;;;5026539;28;84069;-42
2023/10/18 11:42:06;;;;;;;;;;;10.20;59.80;;;;;;5037211;28;84291;-42
2023/10/18 11:44:32;;;;;;;;;;;10.20;59.80;;;;;;5034607;28;82147;-42
2023/10/18 11:47:03;;;;;;;;;;;10.20;59.90;;;;;;5028352;28;83874;-42
2023/10/18 11:49:57;;;;;;;;;;;10.20;59.80;;;;;;5029755;28;82935;-42
2023/10/18 11:52:22;;;;;;;;;;;10.20;60.00;;;;;;5033215;28;82233;-42
2023/10/18 11:54:51;;;;;;;;;;;10.20;60.00;;;;;;5032440;27;84095;-42
2023/10/18 11:57:24;;;;;;;;;;;10.20;59.90;;;;;;5028593;28;82147;-42
2023/10/18 11:59:51;;;;;;;;;;;10.20;60.00;;;;;;5032521;28;82511;-42
2023/10/18 12:02:17;;;;;;;;;;;10.20;60.00;;;;;;5035961;28;84235;-42
2023/10/18 12:04:45;;;;;;;;;;;10.30;60.20;;;;;;5031370;28;82747;-42
2023/10/18 12:07:13;;;;;;;;;;;10.30;60.10;;;;;;5028071;28;82812;-42
2023/10/18 12:09:51;;;;;;;;;;;10.30;60.00;;;;;;5032084;28;82126;-42
2023/10/18 12:12:19;;;;;;;;;;;10.30;59.90;;;;;;5031461;28;81230;-42
2023/10/18 12:14:45;;;;;;;;;;;10.30;60.10;;;;;;5025282;28;83348;-42
2023/10/18 12:17:13;;;;;;;;;;;10.30;60.10;;;;;;5033565;28;84225;-42
2023/10/18 12:19:38;;;;;;;;;;;10.30;60.50;;;;;;5033846;28;84114;-42
2023/10/18 12:22:04;;;;;;;;;;;10.30;60.10;;;;;;5026734;28;82891;-42
2023/10/18 12:24:33;;;;;;;;;;;10.30;60.10;;;;;;5026249;28;82260;-42
2023/10/18 12:32:52;;;;;;;;;;;10.30;60.20;;;;;;5024941;28;82150;-42
2023/10/18 12:35:21;;;;;;;;;;;10.30;60.30;;;;;;5021847;28;83672;-42
2023/10/18 12:37:52;;;;;;;;;;;10.30;60.20;;;;;;5035752;28;81346;-42
2023/10/18 12:40:40;;;;;;;;;;;10.30;60.30;;;;;;5035059;28;83132;-42
2023/10/18 12:43:07;;;;;;;;;;;10.30;60.30;;;;;;5028271;28;85069;-42
2023/10/18 12:45:45;;;;;;;;;;;10.30;60.30;;;;;;5030413;28;83116;-42
2023/10/18 12:48:12;;;;;;;;;;;10.30;60.30;;;;;;5034834;28;83357;-43
2023/10/18 12:50:46;;;;;;;;;;;10.30;60.30;;;;;;5028204;28;84453;-42
2023/10/18 12:56:16;;;;;;;;;;;10.30;60.30;;;;;;5030112;28;82476;-42
2023/10/18 12:58:48;;;;;;;;;;;10.30;60.20;;;;;;5031316;28;84647;-42
2023/10/18 13:01:22;;;;;;;;;;;10.30;60.30;;;;;;5027482;28;82494;-42
2023/10/18 13:03:56;;;;;;;;;;;10.30;60.30;;;;;;5029288;28;83803;-42
2023/10/18 13:06:30;;;;;;;;;;;10.30;60.30;;;;;;5029762;28;81961;-42
2023/10/18 13:14:06;;;;;;;;;;;10.30;60.30;;;;;;5033307;27;82921;-42
2023/10/18 13:16:32;;;;;;;;;;;10.30;60.30;;;;;;5032244;28;82960;-42
2023/10/18 13:18:58;;;;;;;;;;;10.30;60.30;;;;;;5028325;28;82865;-42
2023/10/18 13:21:27;;;;;;;;;;;10.30;60.30;;;;;;5027083;28;82127;-42
2023/10/18 13:23:56;;;;;;;;;;;10.30;60.30;;;;;;5029688;28;82391;-42
2023/10/18 13:26:26;;;;;;;;;;;10.40;60.20;;;;;;5035426;28;82969;-43
2023/10/18 13:28:59;;;;;;;;;;;10.30;60.30;;;;;;5032240;28;84798;-42
2023/10/18 13:31:30;;;;;;;;;;;10.30;60.40;;;;;;5021736;28;84676;-42
2023/10/18 13:34:01;;;;;;;;;;;10.40;60.30;;;;;;5035381;28;82012;-42
2023/10/18 13:36:26;;;;;;;;;;;10.40;60.40;;;;;;5031678;28;83984;-42
2023/10/18 13:38:53;;;;;;;;;;;10.40;60.40;;;;;;5021600;28;82840;-42
2023/10/18 13:41:19;;;;;;;;;;;10.40;60.40;;;;;;5030859;28;82459;-42
2023/10/18 13:43:45;;;;;;;;;;;10.40;60.40;;;;;;5035903;28;83978;-42
2023/10/18 13:46:18;;;;;;;;;;;10.40;60.40;;;;;;5030233;28;84716;-42
2023/10/18 13:48:50;;;;;;;;;;;10.40;60.40;;;;;;5027148;28;83921;-42
2023/10/18 13:51:16;;;;;;;;;;;10.40;60.40;;;;;;5021992;28;84445;-42
2023/10/18 13:53:41;;;;;;;;;;;10.40;60.50;;;;;;5036170;28;81289;-42
2023/10/18 13:56:09;;;;;;;;;;;10.40;60.50;;;;;;5032260;28;82038;-42
2023/10/18 13:58:35;;;;;;;;;;;10.40;60.50;;;;;;5028776;27;83040;-42
2023/10/18 14:01:05;;;;;;;;;;;10.40;60.70;;;;;;5038093;28;83488;-42
2023/10/18 14:03:33;;;;;;;;;;;10.40;60.70;;;;;;5035503;27;83854;-42
2023/10/18 14:05:59;;;;;;;;;;;10.40;60.90;;;;;;5030889;28;83283;-42
2023/10/18 14:08:25;;;;;;;;;;;10.40;60.80;;;;;;5029995;28;82574;-42
2023/10/18 14:10:54;;;;;;;;;;;10.40;60.80;;;;;;5037339;28;82905;-42
2023/10/18 14:13:23;;;;;;;;;;;10.40;60.90;;;;;;5033800;28;82621;-42
2023/10/18 14:15:49;;;;;;;;;;;10.50;61.00;;;;;;5035655;28;82113;-42
2023/10/18 14:18:14;;;;;;;;;;;10.40;60.90;;;;;;5029884;28;82055;-43
2023/10/18 14:20:45;;;;;;;;;;;10.40;61.00;;;;;;5036997;28;82470;-42
2023/10/18 14:23:11;;;;;;;;;;;10.40;61.20;;;;;;5029474;27;83998;-42
2023/10/18 14:25:39;;;;;;;;;;;10.40;61.10;;;;;;5033666;28;85117;-42
2023/10/18 14:28:05;;;;;;;;;;;10.40;61.00;;;;;;5030508;28;82130;-42
2023/10/18 14:30:34;;;;;;;;;;;10.50;61.10;;;;;;5041312;28;84006;-42
2023/10/18 14:32:59;;;;;;;;;;;10.50;61.20;;;;;;5030706;28;82344;-43
2023/10/18 14:35:25;;;;;;;;;;;10.50;61.80;;;;;;5032388;28;85569;-42
2023/10/18 14:37:52;;;;;;;;;;;10.40;61.20;;;;;;5034604;28;83689;-42
2023/10/18 14:40:24;;;;;;;;;;;10.50;61.30;;;;;;5038028;28;81909;-42
2023/10/18 14:42:50;;;;;;;;;;;10.50;61.20;;;;;;5030929;28;83995;-42
2023/10/18 14:45:16;;;;;;;;;;;10.50;61.20;;;;;;5030270;28;84518;-42
2023/10/18 14:47:42;;;;;;;;;;;10.50;61.20;;;;;;5035119;28;81984;-42
2023/10/18 14:50:07;;;;;;;;;;;10.50;61.10;;;;;;5036206;27;83333;-42
2023/10/18 14:52:33;;;;;;;;;;;10.50;61.10;;;;;;5032232;28;83017;-42
2023/10/18 14:55:01;;;;;;;;;;;10.50;61.20;;;;;;5027912;28;83975;-43
2023/10/18 14:57:27;;;;;;;;;;;10.50;61.10;;;;;;5035350;28;82848;-42
2023/10/18 14:59:52;;;;;;;;;;;10.50;61.10;;;;;;5036020;28;82576;-42
2023/10/18 15:02:18;;;;;;;;;;;10.50;61.20;;;;;;5025780;28;82380;-42
2023/10/18 15:04:46;;;;;;;;;;;10.50;61.20;;;;;;5027269;28;82918;-43
2023/10/18 15:07:16;;;;;;;;;;;10.60;61.20;;;;;;5038685;28;81361;-42
2023/10/18 15:09:43;;;;;;;;;;;10.50;61.10;;;;;;5027091;28;83396;-42
2023/10/18 15:12:08;;;;;;;;;;;10.60;61.30;;;;;;5028528;28;83329;-42
2023/10/18 15:14:34;;;;;;;;;;;10.60;61.20;;;;;;5036538;28;83087;-42
2023/10/18 15:16:59;;;;;;;;;;;10.60;61.20;;;;;;5036985;28;83047;-42